createdAt,value
2022-10-12T00:01:14.284Z,15.92
2022-10-12T00:03:42.860Z,15.92
2022-10-12T00:06:14.635Z,15.92
2022-10-12T00:08:45.049Z,15.91
2022-10-12T00:11:17.403Z,15.88
2022-10-12T00:13:45.767Z,15.89
2022-10-12T00:16:16.091Z,15.93
2022-10-12T00:18:45.442Z,15.94
2022-10-12T00:21:17.643Z,15.92
2022-10-12T00:23:47.012Z,15.93
2022-10-12T00:26:17.138Z,15.93
2022-10-12T00:28:45.629Z,15.92
2022-10-12T00:31:16.996Z,15.94
2022-10-12T00:33:46.719Z,15.96
2022-10-12T00:36:19.667Z,15.94
2022-10-12T00:38:48.923Z,15.93
2022-10-12T00:41:19.515Z,15.94
2022-10-12T00:43:52.896Z,15.93
2022-10-12T00:46:30.427Z,15.92
2022-10-12T00:49:04.615Z,15.93
2022-10-12T00:51:34.887Z,15.93
2022-10-12T00:54:07.003Z,15.94
2022-10-12T00:56:39.659Z,15.94
2022-10-12T00:59:22.779Z,15.91
2022-10-12T01:01:51.846Z,15.93
2022-10-12T01:04:20.516Z,15.96
2022-10-12T01:06:50.824Z,15.96
2022-10-12T01:09:20.284Z,15.97
2022-10-12T01:11:49.342Z,15.97
2022-10-12T01:14:18.315Z,15.94
2022-10-12T01:16:53.775Z,15.94
2022-10-12T01:19:42.020Z,15.94
2022-10-12T01:22:17.322Z,15.96
2022-10-12T01:24:52.670Z,15.97
2022-10-12T01:27:40.859Z,15.93
2022-10-12T01:30:14.847Z,15.83
2022-10-12T01:33:09.561Z,15.78
2022-10-12T01:35:44.690Z,15.69
2022-10-12T01:38:25.346Z,15.65
2022-10-12T01:41:00.779Z,15.63
2022-10-12T01:43:35.289Z,15.58
2022-10-12T01:46:24.161Z,15.54
2022-10-12T01:48:56.039Z,15.52
2022-10-12T01:51:35.953Z,15.46
2022-10-12T01:54:13.602Z,15.46
2022-10-12T01:56:50.085Z,15.54
2022-10-12T01:59:25.223Z,15.62
2022-10-12T02:02:00.604Z,15.65
2022-10-12T02:04:36.164Z,15.68
2022-10-12T02:07:09.922Z,15.69
2022-10-12T02:09:41.128Z,15.71
2022-10-12T02:12:14.484Z,15.73
2022-10-12T02:14:47.581Z,15.70
2022-10-12T02:17:20.063Z,15.69
2022-10-12T02:19:51.756Z,15.67
2022-10-12T02:22:20.616Z,15.70
2022-10-12T02:24:52.515Z,15.72
2022-10-12T02:27:23.244Z,15.74
2022-10-12T02:29:51.639Z,15.75
2022-10-12T02:32:26.071Z,15.72
2022-10-12T02:34:57.945Z,15.73
2022-10-12T02:37:35.891Z,15.71
2022-10-12T02:40:12.436Z,15.73
2022-10-12T02:43:09.309Z,15.72
2022-10-12T02:45:37.816Z,15.69
2022-10-12T02:48:10.309Z,15.70
2022-10-12T02:50:39.179Z,15.68
2022-10-12T02:53:08.611Z,15.67
2022-10-12T02:55:39.806Z,15.67
2022-10-12T02:58:08.164Z,15.68
2022-10-12T03:00:36.606Z,15.63
2022-10-12T03:03:05.111Z,15.56
2022-10-12T03:05:34.853Z,15.47
2022-10-12T03:08:03.235Z,15.45
2022-10-12T03:10:31.580Z,15.44
2022-10-12T03:13:02.468Z,15.49
2022-10-12T03:15:31.550Z,15.52
2022-10-12T03:17:59.967Z,15.54
2022-10-12T03:20:28.319Z,15.59
2022-10-12T03:22:58.068Z,15.61
2022-10-12T03:25:26.449Z,15.62
2022-10-12T03:27:54.815Z,15.62
2022-10-12T03:30:23.387Z,15.56
2022-10-12T03:32:51.741Z,15.52
2022-10-12T03:35:20.125Z,15.55
2022-10-12T03:37:48.664Z,15.60
2022-10-12T03:40:18.405Z,15.62
2022-10-12T03:42:46.791Z,15.60
2022-10-12T03:45:15.245Z,15.60
2022-10-12T03:47:43.611Z,15.55
2022-10-12T03:50:12.028Z,15.45
2022-10-12T03:52:40.410Z,15.44
2022-10-12T03:55:09.686Z,15.47
2022-10-12T03:57:39.831Z,15.44
2022-10-12T04:00:09.647Z,15.42
2022-10-12T04:02:38.119Z,15.39
2022-10-12T04:05:07.061Z,15.34
2022-10-12T04:07:35.838Z,15.40
2022-10-12T04:10:05.221Z,15.43
2022-10-12T04:12:36.447Z,15.48
2022-10-12T04:15:07.435Z,15.52
2022-10-12T04:17:37.860Z,15.44
2022-10-12T04:20:07.831Z,15.33
2022-10-12T04:22:36.968Z,15.28
2022-10-12T04:25:06.114Z,15.28
2022-10-12T04:27:35.171Z,15.26
2022-10-12T04:30:03.715Z,15.31
2022-10-12T04:32:39.326Z,15.37
2022-10-12T04:35:08.083Z,15.42
2022-10-12T04:37:37.425Z,15.46
2022-10-12T04:40:06.945Z,15.49
2022-10-12T04:42:38.393Z,15.45
2022-10-12T04:45:07.895Z,15.44
2022-10-12T04:47:36.683Z,15.45
2022-10-12T04:50:07.671Z,15.49
2022-10-12T04:52:36.453Z,15.49
2022-10-12T04:55:05.403Z,15.42
2022-10-12T04:57:33.747Z,15.45
2022-10-12T05:00:02.483Z,15.49
2022-10-12T05:02:30.920Z,15.48
2022-10-12T05:05:01.623Z,15.40
2022-10-12T05:07:31.397Z,15.38
2022-10-12T05:09:59.768Z,15.38
2022-10-12T05:12:28.232Z,15.34
2022-10-12T05:14:56.607Z,15.36
2022-10-12T05:17:25.059Z,15.34
2022-10-12T05:19:53.408Z,15.33
2022-10-12T05:22:21.805Z,15.34
2022-10-12T05:24:53.924Z,15.37
2022-10-12T05:27:22.765Z,15.35
2022-10-12T05:29:51.160Z,15.35
2022-10-12T05:32:19.535Z,15.31
2022-10-12T05:34:48.246Z,15.30
2022-10-12T05:37:16.639Z,15.33
2022-10-12T05:39:45.960Z,15.35
2022-10-12T05:42:15.686Z,15.36
2022-10-12T05:44:44.040Z,15.35
2022-10-12T05:47:12.581Z,15.38
2022-10-12T05:49:40.924Z,15.36
2022-10-12T05:52:09.293Z,15.33
2022-10-12T05:54:39.216Z,15.32
2022-10-12T05:57:07.659Z,15.29
2022-10-12T05:59:38.116Z,15.26
2022-10-12T06:02:06.550Z,15.30
2022-10-12T06:04:37.424Z,15.35
2022-10-12T06:07:05.823Z,15.36
2022-10-12T06:09:34.196Z,15.36
2022-10-12T06:12:04.036Z,15.40
2022-10-12T06:14:32.555Z,15.40
2022-10-12T06:17:02.367Z,15.43
2022-10-12T06:19:30.740Z,15.47
2022-10-12T06:21:59.208Z,15.49
2022-10-12T06:24:27.602Z,15.52
2022-10-12T06:26:56.047Z,15.54
2022-10-12T06:29:25.010Z,15.56
2022-10-12T06:31:54.200Z,15.60
2022-10-12T06:34:23.943Z,15.63
2022-10-12T06:36:52.292Z,15.66
2022-10-12T06:39:21.721Z,15.68
2022-10-12T06:41:50.083Z,15.67
2022-10-12T06:44:21.144Z,15.66
2022-10-12T06:46:49.941Z,15.67
2022-10-12T06:49:18.547Z,15.68
2022-10-12T06:51:48.428Z,15.65
2022-10-12T06:54:16.948Z,15.61
2022-10-12T06:56:45.399Z,15.59
2022-10-12T06:59:14.144Z,15.57
2022-10-12T07:01:42.535Z,15.55
2022-10-12T07:04:11.384Z,15.56
2022-10-12T07:06:40.064Z,15.57
2022-10-12T07:09:09.913Z,15.56
2022-10-12T07:11:40.907Z,15.61
2022-10-12T07:14:09.257Z,15.67
2022-10-12T07:16:37.631Z,15.73
2022-10-12T07:19:06.592Z,15.77
2022-10-12T07:21:35.148Z,15.80
2022-10-12T07:24:03.568Z,15.84
2022-10-12T07:26:33.375Z,15.82
2022-10-12T07:29:02.504Z,15.86
2022-10-12T07:31:30.884Z,15.89
2022-10-12T07:33:59.283Z,15.92
2022-10-12T07:36:47.413Z,15.94
2022-10-12T07:39:16.530Z,15.91
2022-10-12T07:41:48.043Z,15.89
2022-10-12T07:44:17.327Z,15.89
2022-10-12T07:46:45.884Z,15.90
2022-10-12T07:49:15.767Z,15.94
2022-10-12T07:51:46.407Z,15.97
2022-10-12T07:54:20.396Z,15.98
2022-10-12T07:56:51.667Z,15.99
2022-10-12T07:59:20.053Z,16.00
2022-10-12T08:01:48.531Z,16.01
2022-10-12T08:04:17.201Z,16.01
2022-10-12T08:06:45.596Z,16.04
2022-10-12T08:09:14.295Z,16.05
2022-10-12T08:11:43.199Z,16.06
2022-10-12T08:14:17.179Z,16.07
2022-10-12T08:16:46.081Z,16.08
2022-10-12T08:19:15.568Z,16.09
2022-10-12T08:21:43.967Z,16.12
2022-10-12T08:24:12.954Z,16.13
2022-10-12T08:26:41.364Z,16.12
2022-10-12T08:29:11.024Z,16.16
2022-10-12T08:31:41.092Z,16.24
2022-10-12T08:34:09.798Z,16.30
2022-10-12T08:36:38.435Z,16.34
2022-10-12T08:39:08.689Z,16.40
2022-10-12T08:41:48.993Z,16.44
2022-10-12T08:44:32.576Z,16.47
2022-10-12T08:47:06.808Z,16.51
2022-10-12T08:49:36.698Z,16.53
2022-10-12T08:52:11.931Z,16.55
2022-10-12T08:54:45.419Z,16.58
2022-10-12T08:57:18.247Z,16.59
2022-10-12T08:59:47.345Z,16.59
2022-10-12T09:02:34.072Z,16.61
2022-10-12T09:05:07.952Z,16.55
2022-10-12T09:07:40.921Z,16.52
2022-10-12T09:10:25.177Z,16.51
2022-10-12T09:13:00.876Z,16.46
2022-10-12T09:15:31.655Z,16.51
2022-10-12T09:18:03.879Z,16.60
2022-10-12T09:20:38.803Z,16.66
2022-10-12T09:23:18.488Z,16.68
2022-10-12T09:25:47.273Z,16.71
2022-10-12T09:28:22.146Z,16.72
2022-10-12T09:31:03.635Z,16.72
2022-10-12T09:33:42.027Z,16.71
2022-10-12T09:36:13.543Z,16.70
2022-10-12T09:38:42.092Z,16.71
2022-10-12T09:41:20.717Z,16.72
2022-10-12T09:43:52.420Z,16.74
2022-10-12T09:46:29.407Z,16.78
2022-10-12T09:49:00.996Z,16.78
2022-10-12T09:51:31.172Z,16.80
2022-10-12T09:54:03.496Z,16.80
2022-10-12T09:56:39.775Z,16.82
2022-10-12T09:59:21.188Z,16.83
2022-10-12T10:01:59.584Z,16.84
2022-10-12T10:04:31.477Z,16.86
2022-10-12T10:07:20.384Z,16.80
2022-10-12T10:09:49.695Z,16.79
2022-10-12T10:12:27.145Z,16.74
2022-10-12T10:14:57.788Z,16.69
2022-10-12T10:17:28.221Z,16.74
2022-10-12T10:19:59.624Z,16.80
2022-10-12T10:22:28.491Z,16.85
2022-10-12T10:25:00.417Z,16.88
2022-10-12T10:27:33.527Z,16.87
2022-10-12T10:30:39.908Z,16.91
2022-10-12T10:33:16.603Z,16.96
2022-10-12T10:36:03.144Z,16.88
2022-10-12T10:38:34.000Z,16.88
2022-10-12T10:41:06.873Z,16.92
2022-10-12T10:43:36.603Z,16.95
2022-10-12T10:46:05.829Z,17.00
2022-10-12T10:48:51.014Z,17.00
2022-10-12T10:51:21.580Z,17.01
2022-10-12T10:53:51.732Z,17.02
2022-10-12T10:56:25.157Z,17.05
2022-10-12T10:58:56.762Z,17.08
2022-10-12T11:01:34.791Z,17.10
2022-10-12T11:04:10.916Z,17.13
2022-10-12T11:06:45.997Z,17.09
2022-10-12T11:09:27.864Z,17.12
2022-10-12T11:12:06.031Z,17.07
2022-10-12T11:14:46.667Z,17.10
2022-10-12T11:17:26.462Z,17.16
2022-10-12T11:20:08.012Z,17.18
2022-10-12T11:22:55.991Z,17.18
2022-10-12T11:25:35.445Z,17.21
2022-10-12T11:28:09.941Z,17.26
2022-10-12T11:30:46.155Z,17.22
2022-10-12T11:33:26.016Z,17.25
2022-10-12T11:36:04.236Z,17.30
2022-10-12T11:38:43.937Z,17.32
2022-10-12T11:41:36.529Z,17.31
2022-10-12T11:44:11.290Z,17.29
2022-10-12T11:46:47.569Z,17.22
2022-10-12T11:49:26.467Z,17.22
2022-10-12T11:52:05.621Z,17.27
2022-10-12T11:54:46.996Z,17.35
2022-10-12T11:57:24.350Z,17.36
2022-10-12T12:00:05.309Z,17.37
2022-10-12T12:02:42.719Z,17.39
2022-10-12T12:05:16.495Z,17.36
2022-10-12T12:07:50.913Z,17.39
2022-10-12T12:10:53.832Z,17.41
2022-10-12T12:13:29.971Z,17.41
2022-10-12T12:16:38.964Z,17.40
2022-10-12T12:19:20.616Z,17.40
2022-10-12T12:22:28.343Z,17.38
2022-10-12T12:25:27.293Z,17.37
2022-10-12T12:28:07.129Z,17.38
2022-10-12T12:30:43.690Z,17.32
2022-10-12T12:33:42.150Z,17.34
2022-10-12T12:36:20.084Z,17.36
2022-10-12T12:38:52.648Z,17.37
2022-10-12T12:41:28.793Z,17.38
2022-10-12T12:44:02.465Z,17.39
2022-10-12T12:50:35.308Z,17.38
2022-10-12T12:53:12.891Z,17.35
2022-10-12T12:56:05.591Z,17.32
2022-10-12T12:58:55.615Z,17.30
2022-10-12T13:01:57.867Z,17.31
2022-10-12T13:04:56.339Z,17.31
2022-10-12T13:08:08.419Z,17.29
2022-10-12T13:10:52.709Z,17.27
2022-10-12T13:13:41.097Z,17.25
2022-10-12T13:17:31.722Z,17.27
2022-10-12T13:20:21.632Z,17.28
2022-10-12T13:22:57.964Z,17.27
2022-10-12T13:25:34.876Z,17.26
2022-10-12T13:28:11.595Z,17.26
2022-10-12T13:30:51.821Z,17.21
2022-10-12T13:33:32.358Z,17.18
2022-10-12T13:36:16.165Z,17.20
2022-10-12T13:38:53.480Z,17.22
2022-10-12T13:41:27.353Z,17.23
2022-10-12T13:44:00.044Z,17.20
2022-10-12T13:46:48.292Z,17.18
2022-10-12T13:49:29.807Z,17.17
2022-10-12T13:52:07.468Z,17.17
2022-10-12T13:54:40.505Z,17.12
2022-10-12T13:57:23.680Z,17.10
2022-10-12T14:00:01.023Z,17.05
2022-10-12T14:02:34.307Z,17.04
2022-10-12T14:05:09.114Z,17.00
2022-10-12T14:07:47.333Z,17.00
2022-10-12T14:10:27.150Z,16.97
2022-10-12T14:13:04.673Z,16.97
2022-10-12T14:15:42.462Z,16.95
2022-10-12T14:18:42.686Z,16.93
2022-10-12T14:21:28.056Z,16.89
2022-10-12T14:24:01.864Z,16.88
2022-10-12T14:26:44.486Z,16.87
2022-10-12T14:29:48.861Z,16.85
2022-10-12T14:32:45.104Z,16.78
2022-10-12T14:35:37.124Z,16.78
2022-10-12T14:38:38.665Z,16.77
2022-10-12T14:41:38.245Z,16.79
2022-10-12T14:44:18.973Z,16.77
2022-10-12T14:46:54.100Z,16.73
2022-10-12T14:49:32.343Z,16.69
2022-10-12T14:52:07.304Z,16.65
2022-10-12T14:54:44.422Z,16.61
2022-10-12T14:57:22.775Z,16.61
2022-10-12T14:59:59.645Z,16.60
2022-10-12T15:02:35.299Z,16.62
2022-10-12T15:05:09.953Z,16.62
2022-10-12T15:07:43.537Z,16.66
2022-10-12T15:10:17.073Z,16.66
2022-10-12T15:12:55.833Z,16.67
2022-10-12T15:15:41.396Z,16.69
2022-10-12T15:18:13.933Z,16.69
2022-10-12T15:20:49.563Z,16.70
2022-10-12T15:23:25.876Z,16.70
2022-10-12T15:26:05.060Z,16.69
2022-10-12T15:28:38.958Z,16.70
2022-10-12T15:31:18.036Z,16.71
2022-10-12T15:33:53.234Z,16.69
2022-10-12T15:36:43.635Z,16.68
2022-10-12T15:39:17.989Z,16.68
2022-10-12T15:41:52.574Z,16.64
2022-10-12T15:44:48.942Z,16.63
2022-10-12T15:47:21.939Z,16.59
2022-10-12T15:49:56.592Z,16.57
2022-10-12T15:52:28.874Z,16.54
2022-10-12T15:55:02.423Z,16.52
2022-10-12T15:57:38.049Z,16.52
2022-10-12T16:00:15.484Z,16.49
2022-10-12T16:02:55.248Z,16.49
2022-10-12T16:05:27.253Z,16.45
2022-10-12T16:07:57.914Z,16.45
2022-10-12T16:10:34.194Z,16.42
2022-10-12T16:13:09.270Z,16.41
2022-10-12T16:15:41.192Z,16.40
2022-10-12T16:18:16.778Z,16.39
2022-10-12T16:20:55.186Z,16.37
2022-10-12T16:23:31.527Z,16.38
2022-10-12T16:26:07.844Z,16.39
2022-10-12T16:28:41.640Z,16.39
2022-10-12T16:31:20.336Z,16.40
2022-10-12T16:33:51.258Z,16.38
2022-10-12T16:36:20.794Z,16.34
2022-10-12T16:38:51.922Z,16.33
2022-10-12T16:41:27.295Z,16.34
2022-10-12T16:44:01.139Z,16.33
2022-10-12T16:46:36.836Z,16.32
2022-10-12T16:49:07.183Z,16.32
2022-10-12T16:51:39.204Z,16.31
2022-10-12T16:54:10.175Z,16.30
2022-10-12T16:56:44.488Z,16.30
2022-10-12T16:59:21.404Z,16.27
2022-10-12T17:02:00.699Z,16.28
2022-10-12T17:04:35.855Z,16.27
2022-10-12T17:07:12.827Z,16.26
2022-10-12T17:09:45.143Z,16.22
2022-10-12T17:12:19.979Z,16.21
2022-10-12T17:15:03.720Z,16.21
2022-10-12T17:17:38.636Z,16.23
2022-10-12T17:20:11.918Z,16.19
2022-10-12T17:22:45.325Z,16.09
2022-10-12T17:25:31.510Z,16.01
2022-10-12T17:28:05.064Z,16.01
2022-10-12T17:30:41.530Z,16.03
2022-10-12T17:33:29.853Z,16.06
2022-10-12T17:36:04.524Z,16.06
2022-10-12T17:38:39.168Z,16.07
2022-10-12T17:41:13.020Z,16.08
2022-10-12T17:43:53.740Z,16.10
2022-10-12T17:46:30.437Z,16.09
2022-10-12T17:49:04.889Z,16.07
2022-10-12T17:51:37.249Z,16.05
2022-10-12T17:54:07.837Z,16.06
2022-10-12T17:56:41.243Z,16.07
2022-10-12T17:59:13.452Z,16.02
2022-10-12T18:01:46.744Z,15.93
2022-10-12T18:04:22.972Z,15.89
2022-10-12T18:06:52.477Z,15.89
2022-10-12T18:09:22.948Z,15.93
2022-10-12T18:11:59.250Z,15.92
2022-10-12T18:14:28.775Z,15.87
2022-10-12T18:17:01.759Z,15.88
2022-10-12T18:19:36.904Z,15.94
2022-10-12T18:22:07.960Z,16.00
2022-10-12T18:24:38.582Z,16.00
2022-10-12T18:27:13.345Z,15.97
2022-10-12T18:29:45.378Z,15.86
2022-10-12T18:32:15.065Z,15.77
2022-10-12T18:34:54.685Z,15.73
2022-10-12T18:37:29.261Z,15.74
2022-10-12T18:40:03.699Z,15.80
2022-10-12T18:42:36.175Z,15.87
2022-10-12T18:45:10.716Z,15.91
2022-10-12T18:47:45.993Z,15.90
2022-10-12T18:50:25.180Z,15.81
2022-10-12T18:53:02.181Z,15.78
2022-10-12T18:55:34.660Z,15.78
2022-10-12T18:58:05.462Z,15.80
2022-10-12T19:00:38.508Z,15.84
2022-10-12T19:03:08.067Z,15.87
2022-10-12T19:05:46.184Z,15.88
2022-10-12T19:08:15.369Z,15.86
2022-10-12T19:10:47.593Z,15.75
2022-10-12T19:13:21.596Z,15.65
2022-10-12T19:15:52.085Z,15.59
2022-10-12T19:18:23.931Z,15.58
2022-10-12T19:21:01.032Z,15.62
2022-10-12T19:23:35.788Z,15.67
2022-10-12T19:26:12.816Z,15.71
2022-10-12T19:28:45.319Z,15.76
2022-10-12T19:31:18.969Z,15.81
2022-10-12T19:33:49.703Z,15.85
2022-10-12T19:36:27.538Z,15.86
2022-10-12T19:39:06.655Z,15.84
2022-10-12T19:41:40.464Z,15.83
2022-10-12T19:44:11.289Z,15.81
2022-10-12T19:46:47.324Z,15.75
2022-10-12T19:49:21.169Z,15.72
2022-10-12T19:51:58.689Z,15.70
2022-10-12T19:54:36.101Z,15.70
2022-10-12T19:57:06.649Z,15.64
2022-10-12T19:59:43.859Z,15.60
2022-10-12T20:02:16.945Z,15.64
2022-10-12T20:04:47.763Z,15.63
2022-10-12T20:07:21.252Z,15.65
2022-10-12T20:09:52.768Z,15.63
2022-10-12T20:12:25.921Z,15.60
2022-10-12T20:14:56.672Z,15.56
2022-10-12T20:17:34.279Z,15.51
2022-10-12T20:20:10.309Z,15.49
2022-10-12T20:22:48.679Z,15.41
2022-10-12T20:25:24.642Z,15.45
2022-10-12T20:27:58.645Z,15.46
2022-10-12T20:30:32.810Z,15.48
2022-10-12T20:33:09.634Z,15.50
2022-10-12T20:35:40.376Z,15.48
2022-10-12T20:38:21.725Z,15.48
2022-10-12T20:41:06.979Z,15.50
2022-10-12T20:43:40.725Z,15.50
2022-10-12T20:46:27.596Z,15.49
2022-10-12T20:48:59.335Z,15.50
2022-10-12T20:51:31.993Z,15.46
2022-10-12T20:54:11.882Z,15.37
2022-10-12T20:56:53.384Z,15.29
2022-10-12T20:59:30.500Z,15.16
2022-10-12T21:02:05.701Z,15.03
2022-10-12T21:04:40.554Z,14.94
2022-10-12T21:07:14.050Z,14.91
2022-10-12T21:09:52.168Z,14.88
2022-10-12T21:12:24.753Z,14.77
2022-10-12T21:15:03.232Z,14.77
2022-10-12T21:17:35.077Z,14.82
2022-10-12T21:20:06.438Z,14.79
2022-10-12T21:22:42.064Z,14.70
2022-10-12T21:25:15.432Z,14.66
2022-10-12T21:27:45.293Z,14.62
2022-10-12T21:30:19.927Z,14.60
2022-10-12T21:32:56.443Z,14.56
2022-10-12T21:35:30.162Z,14.49
2022-10-12T21:38:05.441Z,14.38
2022-10-12T21:40:56.243Z,14.31
2022-10-12T21:43:29.723Z,14.25
2022-10-12T21:46:26.901Z,14.09
2022-10-12T21:49:03.314Z,13.98
2022-10-12T21:51:36.811Z,13.93
2022-10-12T21:54:09.369Z,13.89
2022-10-12T21:56:45.410Z,13.81
2022-10-12T21:59:17.596Z,13.77
2022-10-12T22:01:53.323Z,13.82
2022-10-12T22:04:30.325Z,13.80
2022-10-12T22:07:16.324Z,13.75
2022-10-12T22:09:57.465Z,13.71
2022-10-12T22:12:33.847Z,13.65
2022-10-12T22:17:57.128Z,13.54
2022-10-12T22:20:33.372Z,13.50
2022-10-12T22:23:11.380Z,13.52
2022-10-12T22:25:43.767Z,13.59
2022-10-12T22:28:19.337Z,13.60
2022-10-12T22:30:53.349Z,13.55
2022-10-12T22:33:28.432Z,13.58
2022-10-12T22:36:03.403Z,13.56
2022-10-12T22:38:40.205Z,13.45
2022-10-12T22:41:17.784Z,13.41
2022-10-12T22:43:51.853Z,13.31
2022-10-12T22:46:29.833Z,13.19
2022-10-12T22:49:04.835Z,13.17
2022-10-12T22:51:40.441Z,13.20
2022-10-12T22:54:11.249Z,13.16
2022-10-12T22:56:49.832Z,13.12
2022-10-12T22:59:26.186Z,13.05
2022-10-12T23:01:56.815Z,13.02
2022-10-12T23:04:39.800Z,13.03
2022-10-12T23:07:10.008Z,12.96
2022-10-12T23:09:42.111Z,12.86
2022-10-12T23:12:28.110Z,12.78
2022-10-12T23:15:07.647Z,12.77
2022-10-12T23:17:42.500Z,12.68
2022-10-12T23:20:19.104Z,12.69
2022-10-12T23:22:50.880Z,12.69
2022-10-12T23:25:24.403Z,12.55
2022-10-12T23:27:57.383Z,12.45
2022-10-12T23:30:37.349Z,12.43
2022-10-12T23:33:09.260Z,12.46
2022-10-12T23:35:46.082Z,12.35
2022-10-12T23:38:19.644Z,12.28
2022-10-12T23:40:52.374Z,12.26
2022-10-12T23:43:27.272Z,12.23
2022-10-12T23:46:07.506Z,12.22
2022-10-12T23:48:38.097Z,12.20
2022-10-12T23:51:16.463Z,12.25
2022-10-12T23:53:46.872Z,12.28
2022-10-12T23:56:19.877Z,12.34
2022-10-12T23:58:52.832Z,12.32
